Time;durP1;ratioP1;P1;durP2;ratioP2;P2;SDS_P1;SDS_P2;PMS_P1;PMS_P2;Temp;Humidity;BMP_temperature;BMP_pressure;BME280_temperature;BME280_humidity;BME280_pressure;Samples;Min_cycle;Max_cycle;Signal;HPM_P1;HPM_P2
2022/03/13 00:01:03;;;;;;;5.43;2.80;;;;;;;;;;20609823;28;20212;-65
2022/03/13 00:11:17;;;;;;;3.97;2.37;;;8.30;99.90;;;;;;20629687;28;20725;-65
2022/03/13 00:21:20;;;;;;;3.30;2.23;;;;;;;;;;20633363;28;20212;-65
2022/03/13 00:31:21;;;;;;;3.43;2.23;;;;;;;;;;20614037;28;20777;-65
2022/03/13 00:41:23;;;;;;;4.47;2.20;;;;;;;;;;20856208;23;20223;-70
2022/03/13 00:51:25;;;;;;;4.50;2.40;;;;;;;;;;21154007;28;20239;-70
2022/03/13 01:01:27;;;;;;;4.50;2.17;;;;;;;;;;21154961;28;20249;-70
2022/03/13 01:11:29;;;;;;;4.23;2.57;;;;;;;;;;21153099;28;20272;-70
2022/03/13 01:21:32;;;;;;;3.13;2.10;;;7.70;99.90;;;;;;21156025;28;20204;-70
2022/03/13 01:31:37;;;;;;;4.87;2.33;;;7.60;99.90;;;;;;21120383;28;20269;-70
2022/03/13 01:41:39;;;;;;;3.23;2.60;;;;;;;;;;21134746;28;20220;-70
2022/03/13 01:51:40;;;;;;;4.10;1.77;;;;;;;;;;21152992;28;20603;-69
2022/03/13 02:01:44;;;;;;;2.80;1.87;;;7.00;99.90;;;;;;21152574;28;20204;-70
2022/03/13 02:11:46;;;;;;;4.87;2.57;;;;;;;;;;21153374;28;20439;-69
2022/03/13 02:21:51;;;;;;;3.20;2.10;;;6.90;99.90;;;;;;21162468;28;20620;-70
2022/03/13 02:31:53;;;;;;;3.87;2.50;;;;;;;;;;21167231;28;20252;-69
2022/03/13 02:41:56;;;;;;;3.37;2.10;;;;;;;;;;21165430;28;20254;-69
2022/03/13 02:52:00;;;;;;;4.67;2.50;;;;;;;;;;21147630;28;20261;-69
2022/03/13 03:02:02;;;;;;;5.23;2.43;;;;;;;;;;21165092;28;20686;-69
2022/03/13 03:12:04;;;;;;;3.17;2.20;;;;;;;;;;21145047;28;20223;-70
2022/03/13 03:22:06;;;;;;;6.23;2.40;;;;;;;;;;21162572;28;20199;-70
2022/03/13 03:32:08;;;;;;;5.27;2.87;;;7.70;99.90;;;;;;21142890;28;20268;-69
2022/03/13 03:42:10;;;;;;;2.87;2.30;;;;;;;;;;21141405;28;20227;-69
2022/03/13 03:52:11;;;;;;;3.27;2.20;;;;;;;;;;21160932;28;20269;-69
2022/03/13 04:02:13;;;;;;;2.83;1.93;;;;;;;;;;21141638;28;20269;-69
2022/03/13 04:12:15;;;;;;;3.23;1.93;;;;;;;;;;21158627;28;20211;-69
2022/03/13 04:22:16;;;;;;;4.43;2.63;;;;;;;;;;21158761;28;20613;-69
2022/03/13 04:32:22;;;;;;;3.50;2.20;;;;;;;;;;21139599;28;20208;-70
2022/03/13 04:42:24;;;;;;;2.87;2.10;;;;;;;;;;21136191;28;20602;-69
2022/03/13 04:52:27;;;;;;;4.07;2.40;;;5.10;99.90;;;;;;21155600;28;20572;-69
2022/03/13 05:02:29;;;;;;;2.67;2.10;;;;;;;;;;21155459;28;20755;-69
2022/03/13 05:12:32;;;;;;;3.37;2.17;;;;;;;;;;21154800;28;20215;-69
2022/03/13 05:22:35;;;;;;;2.37;1.90;;;;;;;;;;21136733;28;20302;-69
2022/03/13 05:32:44;;;;;;;3.20;2.37;;;;;;;;;;21153253;28;20208;-69
2022/03/13 05:42:46;;;;;;;2.37;2.17;;;;;;;;;;21151837;28;20261;-69
2022/03/13 05:52:49;;;;;;;2.57;1.87;;;;;;;;;;21158294;28;20212;-69
2022/03/13 06:02:50;;;;;;;2.50;1.93;;;;;;;;;;21168540;28;20221;-69
2022/03/13 06:12:52;;;;;;;3.53;2.00;;;4.60;99.90;;;;;;21167472;28;20227;-70
2022/03/13 06:22:54;;;;;;;3.10;2.57;;;;;;;;;;21110576;28;20208;-69
2022/03/13 06:32:56;;;;;;;3.27;2.03;;;;;;;;;;21076708;28;20221;-68
2022/03/13 06:42:58;;;;;;;3.03;1.90;;;;;;;;;;21080754;28;20232;-70
2022/03/13 06:53:01;;;;;;;1.97;1.73;;;;;;;;;;21049973;28;20277;-69
2022/03/13 07:03:03;;;;;;;4.27;2.50;;;;;;;;;;21155578;28;20203;-69
2022/03/13 07:13:04;;;;;;;2.23;1.67;;;;;;;;;;21144128;28;20274;-69
2022/03/13 07:23:06;;;;;;;2.70;1.97;;;;;;;;;;21126666;28;20211;-69
2022/03/13 07:33:08;;;;;;;2.87;2.20;;;;;;;;;;21075752;28;20216;-69
2022/03/13 07:43:10;;;;;;;3.23;1.90;;;;;;;;;;21076074;28;20212;-69
2022/03/13 07:53:12;;;;;;;3.87;2.37;;;;;;;;;;21096204;28;20273;-70
2022/03/13 08:03:15;;;;;;;2.83;2.00;;;;;;;;;;21091922;28;20244;-68
2022/03/13 08:13:17;;;;;;;3.27;2.00;;;;;;;;;;21037286;28;20285;-69
2022/03/13 08:23:19;;;;;;;3.60;2.50;;;;;;;;;;21000477;28;20625;-70
2022/03/13 08:33:20;;;;;;;4.93;2.37;;;;;;;;;;21067378;28;20549;-70
2022/03/13 08:43:22;;;;;;;3.10;2.30;;;;;;;;;;21049963;28;20579;-71
2022/03/13 08:53:25;;;;;;;2.87;1.93;;;;;;;;;;21049815;28;20270;-71
2022/03/13 09:03:28;;;;;;;2.67;1.83;;;;;;;;;;21066191;28;20213;-71
2022/03/13 09:13:30;;;;;;;3.13;2.00;;;;;;;;;;21065362;28;20727;-71
2022/03/13 09:23:32;;;;;;;4.20;2.80;;;;;;;;;;21065115;28;20196;-71
2022/03/13 09:33:34;;;;;;;3.77;2.50;;;;;;;;;;21062243;28;20577;-71
2022/03/13 09:43:35;;;;;;;3.83;2.70;;;;;;;;;;21064097;28;20269;-72
2022/03/13 09:53:38;;;;;;;6.73;2.20;;;;;;;;;;21062865;28;20236;-70
2022/03/13 10:03:40;;;;;;;3.23;2.20;;;;;;;;;;21061365;28;20278;-72
2022/03/13 10:13:46;;;;;;;5.10;2.20;;;11.60;99.90;;;;;;21078013;28;20261;-71
2022/03/13 10:23:48;;;;;;;2.90;1.87;;;;;;;;;;21053121;28;20212;-72
2022/03/13 10:33:55;;;;;;;3.60;2.20;;;;;;;;;;21041557;28;20895;-72
2022/03/13 10:43:58;;;;;;;3.87;2.23;;;11.00;99.90;;;;;;21057140;28;20274;-71
2022/03/13 10:54:00;;;;;;;4.50;2.27;;;;;;;;;;21047029;28;20751;-72
2022/03/13 11:04:09;;;;;;;3.37;2.03;;;10.80;99.90;;;;;;21060750;28;20216;-71
2022/03/13 11:14:12;;;;;;;5.07;2.47;;;;;;;;;;21066419;28;20213;-71
2022/03/13 11:24:14;;;;;;;3.80;2.23;;;11.30;99.90;;;;;;21019358;28;20238;-72
2022/03/13 11:34:18;;;;;;;4.40;2.17;;;11.40;99.90;;;;;;21059244;28;20262;-70
2022/03/13 11:44:23;;;;;;;4.47;2.50;;;;;;;;;;21055929;28;20703;-71
2022/03/13 11:54:43;;;;;;;4.43;2.27;;;;;;;;;;21061046;28;20217;-71
2022/03/13 12:04:45;;;;;;;4.07;2.20;;;;;;;;;;21021255;28;20216;-71
2022/03/13 12:15:02;;;;;;;4.43;2.53;;;12.40;99.90;;;;;;21046807;28;20247;-70
2022/03/13 12:25:04;;;;;;;4.30;2.60;;;;;;;;;;21046383;28;20242;-70
2022/03/13 12:35:06;;;;;;;4.20;2.17;;;;;;;;;;21057401;28;20349;-72
2022/03/13 12:45:12;;;;;;;4.50;2.87;;;12.00;99.90;;;;;;21045803;28;20250;-71
2022/03/13 12:55:16;;;;;;;4.73;2.90;;;;;;;;;;21032800;28;20212;-71
2022/03/13 13:05:17;;;;;;;4.07;2.80;;;;;;;;;;21042785;28;20212;-72
2022/03/13 13:15:22;;;;;;;4.67;2.30;;;;;;;;;;21035960;28;20308;-69
2022/03/13 13:25:28;;;;;;;5.07;2.93;;;;;;;;;;21043843;28;20200;-71
2022/03/13 13:35:32;;;;;;;4.53;2.50;;;14.00;99.90;;;;;;21053118;28;20213;-71
2022/03/13 13:45:36;;;;;;;4.97;2.97;;;;;;;;;;21046804;28;20521;-70
2022/03/13 13:55:39;;;;;;;9.10;3.33;;;14.60;99.90;;;;;;21066818;28;20593;-71
2022/03/13 14:05:41;;;;;;;5.30;3.03;;;14.60;99.90;;;;;;21046824;28;20278;-69
2022/03/13 14:15:43;;;;;;;4.87;3.10;;;;;;;;;;21055355;28;20217;-71
2022/03/13 14:25:44;;;;;;;6.27;3.33;;;;;;;;;;21078920;28;20234;-72
2022/03/13 14:35:46;;;;;;;5.00;3.17;;;;;;;;;;21077462;28;20212;-70
2022/03/13 14:45:49;;;;;;;6.77;3.90;;;14.40;99.90;;;;;;21059655;28;20228;-70
2022/03/13 14:55:51;;;;;;;5.53;3.40;;;;;;;;;;21073932;28;20569;-68
2022/03/13 15:05:54;;;;;;;4.27;3.10;;;;;;;;;;21058508;28;20204;-70
2022/03/13 15:15:57;;;;;;;5.23;3.17;;;;;;;;;;21073170;28;20254;-71
2022/03/13 15:26:01;;;;;;;5.23;3.30;;;;;;;;;;21135473;28;20253;-70
2022/03/13 15:36:02;;;;;;;5.87;3.37;;;;;;;;;;21101075;28;20565;-70
2022/03/13 15:46:05;;;;;;;5.13;3.20;;;;;;;;;;21086807;28;20232;-70
2022/03/13 15:56:07;;;;;;;5.20;3.27;;;;;;;;;;21117299;28;20216;-71
2022/03/13 16:06:09;;;;;;;5.33;3.20;;;;;;;;;;21103340;28;20257;-69
2022/03/13 16:16:12;;;;;;;5.23;3.00;;;13.00;99.90;;;;;;21066443;28;20209;-70
2022/03/13 16:26:14;;;;;;;5.47;3.27;;;;;;;;;;21067444;28;20544;-70
2022/03/13 16:36:16;;;;;;;5.23;3.17;;;;;;;;;;21057132;28;20269;-70
2022/03/13 16:46:19;;;;;;;5.23;3.57;;;;;;;;;;21067502;28;20219;-70
2022/03/13 16:56:22;;;;;;;5.70;4.10;;;;;;;;;;21063324;28;20675;-71
2022/03/13 17:06:25;;;;;;;6.23;4.10;;;;;;;;;;21066873;28;20526;-70
2022/03/13 17:16:27;;;;;;;9.13;4.47;;;;;;;;;;21066238;28;20243;-70
2022/03/13 17:26:29;;;;;;;6.27;4.23;;;;;;;;;;21050364;28;20261;-69
2022/03/13 17:36:36;;;;;;;7.60;4.33;;;;;;;;;;21067550;28;20228;-69
2022/03/13 17:46:38;;;;;;;9.87;4.37;;;11.60;99.90;;;;;;21069299;28;20208;-68
2022/03/13 17:56:44;;;;;;;6.33;4.13;;;11.90;99.90;;;;;;21084906;28;20238;-70
2022/03/13 18:06:46;;;;;;;5.50;3.47;;;;;;;;;;21029536;28;20229;-70
2022/03/13 18:16:47;;;;;;;6.80;4.03;;;;;;;;;;20996269;28;20369;-70
2022/03/13 18:26:51;;;;;;;5.07;3.37;;;;;;;;;;21041518;28;20218;-70
2022/03/13 18:36:53;;;;;;;5.70;3.67;;;;;;;;;;21052119;28;20572;-69
2022/03/13 18:46:55;;;;;;;7.40;4.03;;;;;;;;;;21129623;28;20204;-70
2022/03/13 18:56:56;;;;;;;7.47;3.97;;;;;;;;;;21135300;28;20212;-70
2022/03/13 19:06:58;;;;;;;6.67;3.97;;;;;;;;;;20997239;22;20222;-65
2022/03/13 19:17:02;;;;;;;6.80;4.47;;;11.40;99.90;;;;;;20872978;28;20276;-66
2022/03/13 19:27:05;;;;;;;7.43;4.47;;;7.90;99.90;;;;;;20894320;28;20226;-66
2022/03/13 19:37:07;;;;;;;5.90;4.03;;;;;;;;;;20872370;28;20252;-66
2022/03/13 19:47:10;;;;;;;8.20;4.37;;;;;;;;;;20879046;28;20279;-66
2022/03/13 19:57:13;;;;;;;4.90;3.37;;;;;;;;;;20897648;28;20226;-66
2022/03/13 20:07:15;;;;;;;4.73;3.20;;;;;;;;;;20869913;28;20230;-66
2022/03/13 20:17:17;;;;;;;10.40;4.33;;;;;;;;;;20902240;28;20225;-65
2022/03/13 20:27:19;;;;;;;7.60;4.00;;;;;;;;;;20869341;28;20206;-66
2022/03/13 20:37:23;;;;;;;4.60;3.03;;;;;;;;;;20901438;28;20218;-66
2022/03/13 20:47:25;;;;;;;7.17;3.60;;;;;;;;;;20823998;28;20201;-65
2022/03/13 20:57:27;;;;;;;5.27;3.17;;;;;;;;;;20846120;28;20222;-66
2022/03/13 21:07:29;;;;;;;5.17;2.83;;;;;;;;;;20796263;28;20273;-67
2022/03/13 21:17:31;;;;;;;5.13;2.90;;;;;;;;;;20773091;28;20214;-66
2022/03/13 21:27:34;;;;;;;5.13;3.23;;;;;;;;;;20776011;28;20203;-66
2022/03/13 21:37:38;;;;;;;5.77;3.20;;;;;;;;;;20881684;28;20237;-66
2022/03/13 21:47:40;;;;;;;3.93;2.70;;;;;;;;;;20875781;28;20226;-66
2022/03/13 21:57:42;;;;;;;4.93;3.23;;;;;;;;;;20875565;28;20272;-66
2022/03/13 22:07:44;;;;;;;5.27;3.10;;;;;;;;;;20861777;28;20355;-66
2022/03/13 22:17:46;;;;;;;6.40;2.50;;;;;;;;;;20869062;28;20275;-66
2022/03/13 22:27:50;;;;;;;4.90;2.90;;;;;;;;;;20859764;28;20688;-65
2022/03/13 22:37:53;;;;;;;5.00;3.23;;;11.20;99.90;;;;;;20869849;28;20218;-65
2022/03/13 22:47:55;;;;;;;4.87;2.63;;;;;;;;;;20874146;28;20215;-65
2022/03/13 22:57:57;;;;;;;5.30;2.83;;;;;;;;;;20882183;28;20248;-66
2022/03/13 23:07:59;;;;;;;7.10;3.40;;;11.30;99.90;;;;;;20914557;28;20264;-66
2022/03/13 23:18:02;;;;;;;4.67;2.80;;;;;;;;;;20881170;28;20271;-65
2022/03/13 23:28:04;;;;;;;6.40;4.77;;;10.70;99.90;;;;;;20880644;28;20562;-66
2022/03/13 23:38:11;;;;;;;5.20;3.03;;;10.80;99.90;;;;;;20896388;28;20214;-65
2022/03/13 23:48:12;;;;;;;4.70;2.40;;;10.20;99.90;;;;;;20894505;28;20201;-66
2022/03/13 23:58:14;;;;;;;5.67;3.50;;;;;;;;;;20877877;28;20276;-65
